East Moss Point, Mississippi
Current Conditions -  °F | °C
As of 9:18 PM on Thursday 18 Dec 2014 (Local Time) from KPQL Reporting Station
Overcast Overcast  
Wind Chill: 57°   Ceiling: 7500
Heat Index: 57°   Visibility: 10mi
Dew Point: 47°   Wind: 5mph
Humidity: 69%   Direction: 50°NE
Pressure: 30.16"   Gusts: NA
Location:  30.4156°N, 88.5348°W
Report Text: KPQL 190318Z AUTO 05004KT 10SM SCT027 OVC075 14/08 A3016 RMK AO2 T01390083 TSNO
Loading
Personal Weather Stations






























Interactive Weather Map New forecast layout! Learn more

10-Day Weather Forecast

Advertisements
Track Severe Weather on mobile